Weather at Valle de Banderas Airport

Public forecast

Using degrees Celsius for public forecast. Weather courtesy of forecast.io.

Closest aviation weather report (METAR) to Valle de Banderas Airport

Report is more than 2 hours old.

Closest report is Licenciado Gustavo Díaz Ordaz International Airport, 7.7 nm (14.3 km) S. Retrieved 2021/01/18 02:48 UTC (4 hours ago):

MMPR 180248Z 16003KT 15SM SKC 20/18 A2992 RMK SLP130 52026 956

Closest aviation forecast (TAF) to Valle de Banderas Airport

Forecast is more than 6 hours old.

Closest forecast is Licenciado Gustavo Díaz Ordaz International Airport, 7.7 nm (14.3 km) S. Retrieved 2021-01-18 00:45 UTC (6 hours ago):

TAF MMPR 172241Z 1800/1906 22010KT P6SM SKC TX24/1820Z TN14/1812Z FM180600 00000KT P6SM BKN020 FM181200 00000KT P6SM SCT100 FM182000 20010KT P6SM BKN250